Maersk Dispatcher — XJAJ — position and weather

sailwx.info

Track history (hours):
 
Tides and Currents Weather Stations Pressure Air Temp Water Temp Dewpoint Dewpoint Depression Visibility Wind Speed Wind Dir Waves Ship Positions

Maersk Dispatcher

Last reported at 2017-Jun-22 15:39 UTC. Time now 2017-Jun-22 16:24 UTC.
Position N 47°34' W 052°42'.

Length 89 m; draft 7.2 m.

Type: Other ship. MMSI: 316013080.

Date/timePositionNaut miles runAvg speedWind from/ knotsBaromVisibWave heightAir tempDewpointWater temp
2017-Jun-22 15:39N 47°34' W 052°42'0 0.0
2017-Jun-22 15:21N 47°34' W 052°42'0 0.0
2017-Jun-22 13:51N 47°34' W 052°42'0 0.0
2017-Jun-22 13:24N 47°34' W 052°42'0 0.0
2017-Jun-22 12:57N 47°34' W 052°42'0 0.0
2017-Jun-22 12:27N 47°34' W 052°42'0 0.0
2017-Jun-22 11:57N 47°34' W 052°42'0 0.0
2017-Jun-22 11:30N 47°34' W 052°42'0 0.0
2017-Jun-22 10:48N 47°34' W 052°42'0 0.0
2017-Jun-22 10:09N 47°34' W 052°42'0 0.0
2017-Jun-22 09:57N 47°34' W 052°42'0 0.0
2017-Jun-22 09:24N 47°34' W 052°42'1 1.1
2017-Jun-22 08:56N 47°34' W 052°41'512.1
2017-Jun-22 08:30N 47°33' W 052°33'5 0.1
2017-Jun-20 19:58N 47°33' W 052°26'11 1.3
2017-Jun-20 11:46N 47°34' W 052°42'2 6.2
2017-Jun-20 11:26N 47°34' W 052°39'4 7.6
2017-Jun-20 10:52N 47°33' W 052°33'  
2017-Jun-12 23:49N 47°33' W 052°23'411.8
2017-Jun-12 23:28N 47°33' W 052°29'9 2.2
2017-Jun-12 19:14N 47°34' W 052°42'0 0.0
2017-Jun-12 18:08N 47°34' W 052°42'0 0.0
2017-Jun-12 17:56N 47°34' W 052°42'0 0.5
2017-Jun-12 17:30N 47°34' W 052°42'  
Track history (hours):
 
Tides and Currents Weather Stations Pressure Air Temp Water Temp Dewpoint Dewpoint Depression Visibility Wind Speed Wind Dir Waves Ship Positions

Maersk Dispatcher

Last reported at 2017-Jun-22 15:39 UTC. Time now 2017-Jun-22 16:24 UTC.
Position N 47°34' W 052°42'.

Length 89 m; draft 7.2 m.

Type: Other ship. MMSI: 316013080.

Date/timePositionNaut miles runAvg speedWind from/ knotsBaromVisibWave heightAir tempDewpointWater temp
2017-Jun-22 15:39N 47°34' W 052°42'0 0.0
2017-Jun-22 15:21N 47°34' W 052°42'0 0.0
2017-Jun-22 13:51N 47°34' W 052°42'0 0.0
2017-Jun-22 13:24N 47°34' W 052°42'0 0.0
2017-Jun-22 12:57N 47°34' W 052°42'0 0.0
2017-Jun-22 12:27N 47°34' W 052°42'0 0.0
2017-Jun-22 11:57N 47°34' W 052°42'0 0.0
2017-Jun-22 11:30N 47°34' W 052°42'0 0.0
2017-Jun-22 10:48N 47°34' W 052°42'0 0.0
2017-Jun-22 10:09N 47°34' W 052°42'0 0.0
2017-Jun-22 09:57N 47°34' W 052°42'0 0.0
2017-Jun-22 09:24N 47°34' W 052°42'1 1.1
2017-Jun-22 08:56N 47°34' W 052°41'512.1
2017-Jun-22 08:30N 47°33' W 052°33'5 0.1
2017-Jun-20 19:58N 47°33' W 052°26'11 1.3
2017-Jun-20 11:46N 47°34' W 052°42'2 6.2
2017-Jun-20 11:26N 47°34' W 052°39'4 7.6
2017-Jun-20 10:52N 47°33' W 052°33'  
2017-Jun-12 23:49N 47°33' W 052°23'411.8
2017-Jun-12 23:28N 47°33' W 052°29'9 2.2
2017-Jun-12 19:14N 47°34' W 052°42'0 0.0
2017-Jun-12 18:08N 47°34' W 052°42'0 0.0
2017-Jun-12 17:56N 47°34' W 052°42'0 0.5
2017-Jun-12 17:30N 47°34' W 052°42'  

Dump ship's entire track history